Zadar, Croatia

7:05 PM CEST on September 02, 2014 (GMT +0200)
Zemunik | Change Station
CLOSE
Current Station
Airport
Location: Zadar,
Elevation: 269 ft
Nearby Weather Stations

Elev 269 ft 44.10 °N, 15.36 °E | Updated 5 minutes ago

Partly Cloudy
Partly Cloudy
68 °F
Feels Like 68 °F
N
8
Wind Variable Wind from NNE

Today
High -- | Low -- °F
--% Chance of Precip.
Yesterday
High -- | Low -- °F
Precip. -- in
6:22 AM 7:33 PM
First Quarter, 53% visible
Pressure 29.74 in
Visibility 6.2 miles
Clouds Few 4000 ft
Dew Point 54 °F
Humidity 60%
Rainfall 0.00 in
Snow Depth Not available.
UV 0 out of 12
Pollen Not available.
Air Quality Not available.
Flu Activity Not available.
METAR LDZD 021700Z 03007KT 330V080 9999 FEW040 20/12 Q1007 NOSIG

More Conditions Fewer Conditions

Pressure 29.74 in
Visibility 6.2 miles
Clouds Few 4000 ft
Dew Point 54 °F
Humidity 60%
Rainfall 0.00 in
Snow Depth Not available.
UV 0 out of 12
Pollen Not available.
Air Quality Not available.
Flu Activity Not available.
METAR LDZD 021700Z 03007KT 330V080 9999 FEW040 20/12 Q1007 NOSIG

More Conditions Fewer Conditions

10-Day Weather Forecast

Almanac

Astronomy

Sep. 02, 2014 Rise Set
Actual Time 6:22 AM CEST 7:33 PM CEST
Civil Twilight 5:52 AM CEST 8:02 PM CEST
Nautical Twilight 5:16 AM CEST 8:38 PM CEST
Astronomical Twilight 4:39 AM CEST 9:15 PM CEST
Moon 2:04 PM CEST 11:55 PM CEST
Length of Visible Light 14h 10m
Length of Day
13h 10m
Tomorrow will be 2m 56s shorter.
First Quarter, 53% of the Moon is Illuminated
Today
First Quarter
Sep 8
Full
Sep 15
Last Quarter
Sep 24
New
Oct 1
First Quarter

Today's Extremes

Country Highs Country Lows

Community

WunderPhotos

Upload Photos

1,749,720 photos uploaded!

Nearby

Snow Depth

Not available.

Earthquake Activity

City Distance Mag. Time & Date
No recent earthquake activity has been reported nearby.
Minimum magnitude displayed is 2.5.

Coastal Water Temperatures

Place Temperature
No Stations Reporting

Nearby Weather Stations